createdAt,value
2022-09-26T00:00:47.942Z,1007.31
2022-09-26T00:01:47.882Z,1007.27
2022-09-26T00:02:47.861Z,1007.29
2022-09-26T00:03:47.797Z,1007.24
2022-09-26T00:04:47.797Z,1007.17
2022-09-26T00:05:47.769Z,1007.17
2022-09-26T00:06:47.758Z,1007.14
2022-09-26T00:07:47.740Z,1007.13
2022-09-26T00:09:08.786Z,1007.09
2022-09-26T00:09:47.747Z,1007.09
2022-09-26T00:10:47.701Z,1007.03
2022-09-26T00:11:47.710Z,1007.03
2022-09-26T00:12:47.670Z,1007.00
2022-09-26T00:13:47.668Z,1006.95
2022-09-26T00:14:47.661Z,1006.95
2022-09-26T00:15:47.641Z,1006.97
2022-09-26T00:16:47.683Z,1006.91
2022-09-26T00:17:47.637Z,1006.91
2022-09-26T00:18:47.591Z,1006.87
2022-09-26T00:20:08.599Z,1006.86
2022-09-26T00:20:47.572Z,1006.80
2022-09-26T00:21:47.551Z,1006.79
2022-09-26T00:22:47.550Z,1006.74
2022-09-26T00:23:47.531Z,1006.75
2022-09-26T00:24:47.553Z,1006.75
2022-09-26T00:25:47.503Z,1006.71
2022-09-26T00:26:47.501Z,1006.70
2022-09-26T00:27:47.475Z,1006.69
2022-09-26T00:28:47.473Z,1006.64
2022-09-26T00:29:47.462Z,1006.62
2022-09-26T00:31:08.500Z,1006.61
2022-09-26T00:31:47.441Z,1006.51
2022-09-26T00:32:47.441Z,1006.51
2022-09-26T00:33:47.419Z,1006.49
2022-09-26T00:34:47.391Z,1006.50
2022-09-26T00:35:47.374Z,1006.52
2022-09-26T00:36:47.353Z,1006.47
2022-09-26T00:37:47.346Z,1006.48
2022-09-26T00:38:47.324Z,1006.47
2022-09-26T00:39:47.326Z,1006.43
2022-09-26T00:40:47.359Z,1006.43
2022-09-26T00:42:08.285Z,1006.44
2022-09-26T00:42:47.277Z,1006.43
2022-09-26T00:43:47.264Z,1006.39
2022-09-26T00:44:47.263Z,1006.41
2022-09-26T00:45:47.357Z,1006.42
2022-09-26T00:46:47.226Z,1006.37
2022-09-26T00:47:47.226Z,1006.36
2022-09-26T00:48:47.206Z,1006.35
2022-09-26T00:49:47.194Z,1006.36
2022-09-26T00:50:47.177Z,1006.38
2022-09-26T00:51:47.156Z,1006.36
2022-09-26T00:52:47.146Z,1006.35
2022-09-26T00:53:47.126Z,1006.31
2022-09-26T00:54:47.126Z,1006.30
2022-09-26T00:55:47.106Z,1006.29
2022-09-26T00:56:47.087Z,1006.24
2022-09-26T00:57:47.076Z,1006.26
2022-09-26T00:58:47.066Z,1006.28
2022-09-26T00:59:47.056Z,1006.23
2022-09-26T01:00:47.047Z,1006.19
2022-09-26T01:01:47.185Z,1006.23
2022-09-26T01:02:47.104Z,1006.23
2022-09-26T01:03:46.997Z,1006.20
2022-09-26T01:04:46.997Z,1006.21
2022-09-26T01:05:46.967Z,1006.25
2022-09-26T01:06:46.958Z,1006.20
2022-09-26T01:07:46.948Z,1006.19
2022-09-26T01:08:46.937Z,1006.15
2022-09-26T01:09:46.928Z,1006.19
2022-09-26T01:10:46.919Z,1006.18
2022-09-26T01:11:46.906Z,1006.14
2022-09-26T01:12:46.880Z,1006.15
2022-09-26T01:13:46.863Z,1006.13
2022-09-26T01:15:07.880Z,1006.08
2022-09-26T01:15:46.839Z,1006.09
2022-09-26T01:16:46.864Z,1006.10
2022-09-26T01:17:46.811Z,1006.12
2022-09-26T01:18:46.808Z,1006.12
2022-09-26T01:19:46.781Z,1006.06
2022-09-26T01:20:46.780Z,1006.08
2022-09-26T01:21:46.762Z,1006.03
2022-09-26T01:22:46.750Z,1006.03
2022-09-26T01:23:46.730Z,1005.98
2022-09-26T01:24:46.721Z,1005.99
2022-09-26T01:26:07.722Z,1005.94
2022-09-26T01:26:46.702Z,1005.99
2022-09-26T01:27:46.681Z,1005.97
2022-09-26T01:28:46.660Z,1005.93
2022-09-26T01:29:46.658Z,1005.90
2022-09-26T01:30:46.706Z,1005.92
2022-09-26T01:31:46.657Z,1005.91
2022-09-26T01:32:46.611Z,1005.91
2022-09-26T01:33:46.602Z,1005.91
2022-09-26T01:34:46.592Z,1005.86
2022-09-26T01:35:46.582Z,1005.85
2022-09-26T01:37:07.564Z,1005.83
2022-09-26T01:37:46.547Z,1005.83
2022-09-26T01:38:46.558Z,1005.81
2022-09-26T01:39:46.548Z,1005.81
2022-09-26T01:40:46.507Z,1005.79
2022-09-26T01:41:46.492Z,1005.80
2022-09-26T01:42:46.493Z,1005.75
2022-09-26T01:43:46.464Z,1005.77
2022-09-26T01:44:46.466Z,1005.75
2022-09-26T01:45:46.491Z,1005.78
2022-09-26T01:46:46.432Z,1005.75
2022-09-26T01:48:07.413Z,1005.74
2022-09-26T01:48:46.401Z,1005.71
2022-09-26T01:49:46.393Z,1005.72
2022-09-26T01:50:46.375Z,1005.71
2022-09-26T01:51:46.365Z,1005.73
2022-09-26T01:52:46.364Z,1005.69
2022-09-26T01:53:46.346Z,1005.69
2022-09-26T01:54:46.351Z,1005.72
2022-09-26T01:55:46.338Z,1005.69
2022-09-26T01:56:46.358Z,1005.73
2022-09-26T01:57:46.302Z,1005.68
2022-09-26T01:59:07.265Z,1005.66
2022-09-26T01:59:46.303Z,1005.65
2022-09-26T02:00:46.275Z,1005.59
2022-09-26T02:01:46.297Z,1005.60
2022-09-26T02:02:46.267Z,1005.61
2022-09-26T02:03:46.205Z,1005.59
2022-09-26T02:04:46.206Z,1005.59
2022-09-26T02:05:46.176Z,1005.61
2022-09-26T02:06:46.168Z,1005.61
2022-09-26T02:07:46.145Z,1005.56
2022-09-26T02:08:46.143Z,1005.52
2022-09-26T02:09:46.147Z,1005.46
2022-09-26T02:10:46.108Z,1005.43
2022-09-26T02:11:46.094Z,1005.45
2022-09-26T02:12:46.081Z,1005.42
2022-09-26T02:13:46.068Z,1005.39
2022-09-26T02:15:07.069Z,1005.36
2022-09-26T02:15:46.049Z,1005.36
2022-09-26T02:16:46.085Z,1005.30
2022-09-26T02:17:46.038Z,1005.31
2022-09-26T02:18:46.008Z,1005.26
2022-09-26T02:19:45.999Z,1005.27
2022-09-26T02:20:45.972Z,1005.22
2022-09-26T02:21:45.961Z,1005.26
2022-09-26T02:22:45.952Z,1005.21
2022-09-26T02:23:45.938Z,1005.20
2022-09-26T02:24:45.930Z,1005.17
2022-09-26T02:25:45.920Z,1005.18
2022-09-26T02:26:45.891Z,1005.17
2022-09-26T02:27:45.879Z,1005.15
2022-09-26T02:28:45.860Z,1005.11
2022-09-26T02:29:45.870Z,1005.10
2022-09-26T02:30:45.849Z,1005.05
2022-09-26T02:31:45.922Z,1005.05
2022-09-26T02:32:45.810Z,1005.05
2022-09-26T02:33:45.801Z,1004.94
2022-09-26T02:34:45.791Z,1004.96
2022-09-26T02:35:45.771Z,1004.95
2022-09-26T02:37:06.762Z,1004.89
2022-09-26T02:37:45.741Z,1004.91
2022-09-26T02:38:45.730Z,1004.89
2022-09-26T02:39:45.731Z,1004.87
2022-09-26T02:40:45.761Z,1004.92
2022-09-26T02:41:45.709Z,1004.85
2022-09-26T02:42:45.681Z,1004.82
2022-09-26T02:43:45.662Z,1004.77
2022-09-26T02:44:45.672Z,1004.76
2022-09-26T02:45:45.650Z,1004.74
2022-09-26T02:46:45.642Z,1004.67
2022-09-26T02:47:45.614Z,1004.71
2022-09-26T02:48:45.603Z,1004.69
2022-09-26T02:49:45.694Z,1004.70
2022-09-26T02:50:45.573Z,1004.66
2022-09-26T02:51:45.554Z,1004.66
2022-09-26T02:52:45.543Z,1004.66
2022-09-26T02:53:45.533Z,1004.61
2022-09-26T02:54:45.546Z,1004.60
2022-09-26T02:55:45.503Z,1004.64
2022-09-26T02:56:45.494Z,1004.61
2022-09-26T02:57:45.474Z,1004.60
2022-09-26T02:58:45.466Z,1004.55
2022-09-26T02:59:45.465Z,1004.54
2022-09-26T03:00:45.518Z,1004.48
2022-09-26T03:01:45.424Z,1004.48
2022-09-26T03:02:45.415Z,1004.52
2022-09-26T03:03:45.440Z,1004.45
2022-09-26T03:04:45.505Z,1004.37
2022-09-26T03:05:45.376Z,1004.31
2022-09-26T03:06:45.360Z,1004.35
2022-09-26T03:07:45.347Z,1004.31
2022-09-26T03:08:45.335Z,1004.29
2022-09-26T03:09:45.326Z,1004.29
2022-09-26T03:10:45.320Z,1004.25
2022-09-26T03:11:45.285Z,1004.21
2022-09-26T03:12:45.286Z,1004.17
2022-09-26T03:13:45.267Z,1004.19
2022-09-26T03:14:45.266Z,1004.12
2022-09-26T03:15:45.252Z,1004.13
2022-09-26T03:16:45.278Z,1004.14
2022-09-26T03:17:45.227Z,1004.13
2022-09-26T03:18:45.205Z,1004.09
2022-09-26T03:19:45.197Z,1004.11
2022-09-26T03:21:06.168Z,1004.09
2022-09-26T03:21:45.158Z,1004.02
2022-09-26T03:22:45.147Z,1004.06
2022-09-26T03:23:45.137Z,1004.05
2022-09-26T03:24:45.127Z,1004.05
2022-09-26T03:25:45.123Z,1004.03
2022-09-26T03:26:45.091Z,1004.05
2022-09-26T03:27:45.086Z,1003.99
2022-09-26T03:28:45.064Z,1003.94
2022-09-26T03:29:45.126Z,1003.93
2022-09-26T03:30:45.052Z,1003.89
2022-09-26T03:32:06.095Z,1003.84
2022-09-26T03:32:45.043Z,1003.87
2022-09-26T03:33:45.009Z,1003.86
2022-09-26T03:34:45.016Z,1003.80
2022-09-26T03:35:44.982Z,1003.84
2022-09-26T03:36:44.982Z,1003.82
2022-09-26T03:37:44.953Z,1003.79
2022-09-26T03:38:44.945Z,1003.74
2022-09-26T03:39:44.946Z,1003.75
2022-09-26T03:40:44.992Z,1003.78
2022-09-26T03:41:44.903Z,1003.70
2022-09-26T03:43:05.894Z,1003.74
2022-09-26T03:43:44.883Z,1003.75
2022-09-26T03:44:44.884Z,1003.75
2022-09-26T03:45:44.883Z,1003.74
2022-09-26T03:46:44.834Z,1003.74
2022-09-26T03:47:44.824Z,1003.75
2022-09-26T03:48:44.813Z,1003.75
2022-09-26T03:49:44.818Z,1003.71
2022-09-26T03:50:44.786Z,1003.67
2022-09-26T03:51:44.785Z,1003.71
2022-09-26T03:52:44.755Z,1003.68
2022-09-26T03:54:05.746Z,1003.72
2022-09-26T03:54:44.746Z,1003.68
2022-09-26T03:55:44.715Z,1003.67
2022-09-26T03:56:44.708Z,1003.63
2022-09-26T03:57:44.686Z,1003.61
2022-09-26T03:58:44.683Z,1003.62
2022-09-26T03:59:44.677Z,1003.56
2022-09-26T04:00:44.727Z,1003.61
2022-09-26T04:01:44.714Z,1003.58
2022-09-26T04:02:44.677Z,1003.49
2022-09-26T04:03:50.068Z,1003.45
2022-09-26T04:05:06.618Z,1003.43
2022-09-26T04:05:44.589Z,1003.42
2022-09-26T04:06:44.567Z,1003.39
2022-09-26T04:07:44.564Z,1003.33
2022-09-26T04:08:44.547Z,1003.32
2022-09-26T04:09:44.547Z,1003.32
2022-09-26T04:10:44.515Z,1003.33
2022-09-26T04:11:44.509Z,1003.30
2022-09-26T04:12:44.494Z,1003.30
2022-09-26T04:13:51.893Z,1003.35
2022-09-26T04:14:45.479Z,1003.29
2022-09-26T04:16:05.523Z,1003.30
2022-09-26T04:16:44.528Z,1003.31
2022-09-26T04:17:44.428Z,1003.26
2022-09-26T04:18:44.410Z,1003.21
2022-09-26T04:19:44.408Z,1003.20
2022-09-26T04:20:44.388Z,1003.21
2022-09-26T04:21:44.370Z,1003.20
2022-09-26T04:22:44.369Z,1003.14
2022-09-26T04:23:44.340Z,1003.14
2022-09-26T04:24:44.364Z,1003.08
2022-09-26T04:25:44.319Z,1003.04
2022-09-26T04:27:05.308Z,1003.07
2022-09-26T04:27:44.306Z,1003.01
2022-09-26T04:28:44.280Z,1003.07
2022-09-26T04:29:44.281Z,1003.08
2022-09-26T04:30:44.259Z,1003.00
2022-09-26T04:31:44.317Z,1002.99
2022-09-26T04:32:44.241Z,1002.95
2022-09-26T04:33:44.211Z,1002.94
2022-09-26T04:34:44.220Z,1002.91
2022-09-26T04:35:44.191Z,1002.94
2022-09-26T04:36:44.171Z,1002.95
2022-09-26T04:38:05.165Z,1002.92
2022-09-26T04:38:44.141Z,1002.89
2022-09-26T04:39:44.165Z,1002.90
2022-09-26T04:40:44.180Z,1002.84
2022-09-26T04:41:44.102Z,1002.87
2022-09-26T04:42:44.093Z,1002.84
2022-09-26T04:43:44.092Z,1002.85
2022-09-26T04:44:44.082Z,1002.82
2022-09-26T04:45:44.105Z,1002.83
2022-09-26T04:46:44.042Z,1002.81
2022-09-26T04:47:44.023Z,1002.73
2022-09-26T04:49:05.003Z,1002.74
2022-09-26T04:49:44.016Z,1002.77
2022-09-26T04:50:43.992Z,1002.71
2022-09-26T04:51:43.972Z,1002.69
2022-09-26T04:52:43.953Z,1002.65
2022-09-26T04:53:43.944Z,1002.65
2022-09-26T04:54:43.960Z,1002.63
2022-09-26T04:55:43.929Z,1002.62
2022-09-26T04:56:43.907Z,1002.58
2022-09-26T04:57:43.894Z,1002.62
2022-09-26T04:58:43.898Z,1002.56
2022-09-26T04:59:43.882Z,1002.56
2022-09-26T05:00:43.890Z,1002.56
2022-09-26T05:01:43.899Z,1002.52
2022-09-26T05:02:43.921Z,1002.53
2022-09-26T05:03:43.823Z,1002.49
2022-09-26T05:05:04.817Z,1002.50
2022-09-26T05:05:43.775Z,1002.52
2022-09-26T05:06:43.785Z,1002.49
2022-09-26T05:07:43.755Z,1002.48
2022-09-26T05:08:43.745Z,1002.41
2022-09-26T05:09:43.746Z,1002.45
2022-09-26T05:10:43.736Z,1002.41
2022-09-26T05:11:43.706Z,1002.37
2022-09-26T05:12:43.694Z,1002.43
2022-09-26T05:13:43.677Z,1002.45
2022-09-26T05:14:43.689Z,1002.38
2022-09-26T05:16:04.671Z,1002.37
2022-09-26T05:16:43.689Z,1002.38
2022-09-26T05:17:43.618Z,1002.34
2022-09-26T05:18:43.616Z,1002.37
2022-09-26T05:19:43.605Z,1002.35
2022-09-26T05:20:43.585Z,1002.31
2022-09-26T05:21:43.568Z,1002.26
2022-09-26T05:22:43.558Z,1002.30
2022-09-26T05:23:45.034Z,1002.28
2022-09-26T05:24:43.547Z,1002.23
2022-09-26T05:25:43.513Z,1002.21
2022-09-26T05:27:04.498Z,1002.21
2022-09-26T05:27:43.496Z,1002.18
2022-09-26T05:28:43.468Z,1002.20
2022-09-26T05:29:43.458Z,1002.11
2022-09-26T05:30:43.465Z,1002.10
2022-09-26T05:31:43.582Z,1002.09
2022-09-26T05:32:44.551Z,1002.12
2022-09-26T05:33:43.411Z,1002.11
2022-09-26T05:34:43.418Z,1002.09
2022-09-26T05:35:43.381Z,1002.14
2022-09-26T05:36:43.368Z,1002.13
2022-09-26T05:37:43.360Z,1002.03
2022-09-26T05:38:43.343Z,1002.07
2022-09-26T05:39:43.389Z,1002.09
2022-09-26T05:40:43.330Z,1002.04
2022-09-26T05:41:43.300Z,1002.01
2022-09-26T05:42:43.300Z,1002.04
2022-09-26T05:43:43.272Z,1002.00
2022-09-26T05:44:43.280Z,1001.97
2022-09-26T05:45:43.251Z,1001.97
2022-09-26T05:46:43.319Z,1001.97
2022-09-26T05:47:43.253Z,1001.92
2022-09-26T05:48:43.205Z,1001.93
2022-09-26T05:49:43.223Z,1001.93
2022-09-26T05:50:43.808Z,1001.93
2022-09-26T05:51:43.171Z,1001.93
2022-09-26T05:52:43.152Z,1001.90
2022-09-26T05:53:43.141Z,1001.89
2022-09-26T05:54:43.131Z,1001.91
2022-09-26T05:55:43.113Z,1001.84
2022-09-26T05:56:43.093Z,1001.86
2022-09-26T05:57:43.102Z,1001.84
2022-09-26T05:58:43.072Z,1001.85
2022-09-26T06:00:04.073Z,1001.84
2022-09-26T06:00:43.105Z,1001.83
2022-09-26T06:01:43.076Z,1001.79
2022-09-26T06:02:43.052Z,1001.83
2022-09-26T06:03:43.014Z,1001.85
2022-09-26T06:04:43.013Z,1001.86
2022-09-26T06:05:43.004Z,1001.81
2022-09-26T06:06:42.987Z,1001.80
2022-09-26T06:07:42.954Z,1001.80
2022-09-26T06:08:42.957Z,1001.79
2022-09-26T06:09:42.938Z,1001.76
2022-09-26T06:10:42.928Z,1001.71
2022-09-26T06:11:42.894Z,1001.72
2022-09-26T06:12:45.441Z,1001.74
2022-09-26T06:13:42.888Z,1001.72
2022-09-26T06:14:42.876Z,1001.69
2022-09-26T06:15:42.880Z,1001.69
2022-09-26T06:16:42.899Z,1001.65
2022-09-26T06:17:42.814Z,1001.62
2022-09-26T06:18:42.821Z,1001.60
2022-09-26T06:19:42.795Z,1001.55
2022-09-26T06:20:42.776Z,1001.55
2022-09-26T06:21:42.779Z,1001.56
2022-09-26T06:22:42.755Z,1001.49
2022-09-26T06:23:42.733Z,1001.47
2022-09-26T06:24:42.742Z,1001.47
2022-09-26T06:25:42.706Z,1001.49
2022-09-26T06:27:03.696Z,1001.39
2022-09-26T06:27:42.700Z,1001.40
2022-09-26T06:28:42.666Z,1001.43
2022-09-26T06:29:42.675Z,1001.44
2022-09-26T06:30:42.643Z,1001.40
2022-09-26T06:31:42.704Z,1001.38
2022-09-26T06:32:42.616Z,1001.38
2022-09-26T06:33:42.625Z,1001.36
2022-09-26T06:34:42.597Z,1001.36
2022-09-26T06:35:42.578Z,1001.27
2022-09-26T06:36:42.567Z,1001.27
2022-09-26T06:37:42.550Z,1001.26
2022-09-26T06:38:42.541Z,1001.23
2022-09-26T06:39:42.539Z,1001.23
2022-09-26T06:40:42.568Z,1001.26
2022-09-26T06:41:42.500Z,1001.15
2022-09-26T06:43:03.488Z,1001.17
2022-09-26T06:43:42.467Z,1001.15
2022-09-26T06:44:42.468Z,1001.16
2022-09-26T06:45:42.444Z,1001.14
2022-09-26T06:46:42.489Z,1001.13
2022-09-26T06:47:42.422Z,1001.06
2022-09-26T06:48:42.410Z,1001.09
2022-09-26T06:49:42.408Z,1001.04
2022-09-26T06:50:42.378Z,1001.06
2022-09-26T06:51:42.360Z,1001.07
2022-09-26T06:52:42.358Z,1001.08
2022-09-26T06:53:42.347Z,1001.05
2022-09-26T06:54:42.361Z,1001.03
2022-09-26T06:55:42.312Z,1000.96
2022-09-26T06:56:42.332Z,1000.99
2022-09-26T06:57:42.283Z,1000.98
2022-09-26T06:58:42.277Z,1001.00
2022-09-26T06:59:42.272Z,1000.95
2022-09-26T07:00:42.321Z,1000.98
2022-09-26T07:01:42.416Z,1000.99
2022-09-26T07:02:42.222Z,1000.98
2022-09-26T07:03:45.743Z,1000.94
2022-09-26T07:04:42.194Z,1000.95
2022-09-26T07:05:42.191Z,1000.94
2022-09-26T07:06:42.164Z,1000.95
2022-09-26T07:07:42.151Z,1000.93
2022-09-26T07:09:43.142Z,1000.90
2022-09-26T07:10:42.132Z,1000.88
2022-09-26T07:12:12.408Z,1000.93
2022-09-26T07:12:43.092Z,1000.88
2022-09-26T07:13:42.063Z,1000.87
2022-09-26T07:14:42.071Z,1000.84
2022-09-26T07:15:42.106Z,1000.83
2022-09-26T07:16:42.132Z,1000.81
2022-09-26T07:17:42.016Z,1000.83
2022-09-26T07:18:42.004Z,1000.85
2022-09-26T07:19:42.006Z,1000.84
2022-09-26T07:21:03.024Z,1000.81
2022-09-26T07:21:41.967Z,1000.81
2022-09-26T07:22:41.946Z,1000.84
2022-09-26T07:23:41.956Z,1000.76
2022-09-26T07:24:41.915Z,1000.80
2022-09-26T07:25:41.935Z,1000.72
2022-09-26T07:26:41.896Z,1000.75
2022-09-26T07:27:41.886Z,1000.74
2022-09-26T07:28:41.875Z,1000.72
2022-09-26T07:29:41.856Z,1000.69
2022-09-26T07:30:41.856Z,1000.73
2022-09-26T07:31:41.931Z,1000.74
2022-09-26T07:32:41.816Z,1000.73
2022-09-26T07:33:41.820Z,1000.70
2022-09-26T07:34:41.791Z,1000.66
2022-09-26T07:35:41.795Z,1000.61
2022-09-26T07:36:41.758Z,1000.58
2022-09-26T07:37:41.757Z,1000.57
2022-09-26T07:38:41.740Z,1000.56
2022-09-26T07:39:41.736Z,1000.47
2022-09-26T07:40:41.839Z,1000.47
2022-09-26T07:41:41.718Z,1000.49
2022-09-26T07:43:19.711Z,1000.44
2022-09-26T07:45:42.659Z,1000.42
2022-09-26T07:46:41.678Z,1000.49
2022-09-26T07:47:41.619Z,1000.51
2022-09-26T07:48:41.609Z,1000.47
2022-09-26T07:49:41.599Z,1000.45
2022-09-26T07:50:41.603Z,1000.46
2022-09-26T07:51:41.561Z,1000.51
2022-09-26T07:52:41.558Z,1000.54
2022-09-26T07:53:41.539Z,1000.53
2022-09-26T07:54:41.529Z,1000.46
2022-09-26T07:55:41.540Z,1000.47
2022-09-26T07:56:41.499Z,1000.48
2022-09-26T07:57:41.480Z,1000.48
2022-09-26T07:58:41.470Z,1000.44
2022-09-26T07:59:41.471Z,1000.40
2022-09-26T08:00:41.469Z,1000.41
2022-09-26T08:01:41.498Z,1000.42
2022-09-26T08:02:41.489Z,1000.41
2022-09-26T08:03:41.400Z,1000.33
2022-09-26T08:05:02.412Z,1000.35
2022-09-26T08:05:41.381Z,1000.35
2022-09-26T08:06:41.362Z,1000.33
2022-09-26T08:07:42.290Z,1000.34
2022-09-26T08:08:41.367Z,1000.33
2022-09-26T08:09:41.331Z,1000.36
2022-09-26T08:10:41.326Z,1000.32
2022-09-26T08:11:41.314Z,1000.39
2022-09-26T08:12:41.291Z,1000.35
2022-09-26T08:13:41.279Z,1000.32
2022-09-26T08:14:41.273Z,1000.36
2022-09-26T08:16:02.305Z,1000.29
2022-09-26T08:16:41.307Z,1000.33
2022-09-26T08:17:41.212Z,1000.33
2022-09-26T08:18:41.203Z,1000.35
2022-09-26T08:19:41.224Z,1000.32
2022-09-26T08:20:41.183Z,1000.31
2022-09-26T08:21:41.164Z,1000.31
2022-09-26T08:22:41.154Z,1000.30
2022-09-26T08:23:41.153Z,1000.23
2022-09-26T08:24:41.168Z,1000.29
2022-09-26T08:25:41.116Z,1000.22
2022-09-26T08:27:02.099Z,1000.24
2022-09-26T08:27:41.105Z,1000.25
2022-09-26T08:28:41.075Z,1000.22
2022-09-26T08:29:41.076Z,1000.23
2022-09-26T08:30:41.051Z,1000.22
2022-09-26T08:31:41.098Z,1000.16
2022-09-26T08:32:41.015Z,1000.21
2022-09-26T08:33:41.006Z,1000.19
2022-09-26T08:34:41.018Z,1000.22
2022-09-26T08:35:41.006Z,1000.22
2022-09-26T08:36:40.965Z,1000.17
2022-09-26T08:38:01.945Z,1000.16
2022-09-26T08:38:40.935Z,1000.13
2022-09-26T08:39:40.938Z,1000.10
2022-09-26T08:40:41.004Z,1000.09
2022-09-26T08:41:40.897Z,1000.10
2022-09-26T08:42:40.886Z,1000.05
2022-09-26T08:43:40.866Z,1000.09
2022-09-26T08:44:40.875Z,1000.07
2022-09-26T08:45:45.243Z,1000.06
2022-09-26T08:46:41.896Z,999.99
2022-09-26T08:47:40.819Z,1000.05
2022-09-26T08:49:01.805Z,1000.04
2022-09-26T08:49:40.809Z,1000.04
2022-09-26T08:50:40.784Z,1000.00
2022-09-26T08:51:40.769Z,1000.02
2022-09-26T08:52:40.754Z,999.99
2022-09-26T08:53:40.738Z,1000.05
2022-09-26T08:54:40.737Z,1000.04
2022-09-26T08:55:40.709Z,1000.03
2022-09-26T08:56:40.709Z,1000.04
2022-09-26T08:57:40.687Z,1000.02
2022-09-26T08:58:40.691Z,1000.04
2022-09-26T09:00:01.669Z,1000.02
2022-09-26T09:00:40.657Z,999.96
2022-09-26T09:01:40.683Z,1000.01
2022-09-26T09:02:40.685Z,1000.02
2022-09-26T09:03:40.620Z,1000.03
2022-09-26T09:04:40.611Z,999.97
2022-09-26T09:05:40.569Z,999.96
2022-09-26T09:06:40.580Z,999.94
2022-09-26T09:07:40.550Z,999.98
2022-09-26T09:08:40.542Z,999.99
2022-09-26T09:09:40.540Z,999.92
2022-09-26T09:10:40.510Z,999.94
2022-09-26T09:11:40.512Z,999.90
2022-09-26T09:12:40.494Z,999.87
2022-09-26T09:13:40.472Z,999.87
2022-09-26T09:14:40.472Z,999.86
2022-09-26T09:16:01.575Z,999.90
2022-09-26T09:16:40.433Z,999.84
2022-09-26T09:17:40.411Z,999.83
2022-09-26T09:18:40.409Z,999.84
2022-09-26T09:19:40.399Z,999.81
2022-09-26T09:20:40.401Z,999.79
2022-09-26T09:21:42.029Z,999.78
2022-09-26T09:22:40.363Z,999.73
2022-09-26T09:23:40.332Z,999.76
2022-09-26T09:24:40.322Z,999.81
2022-09-26T09:25:40.333Z,999.75
2022-09-26T09:28:01.199Z,999.73
2022-09-26T09:28:41.272Z,999.73
2022-09-26T09:29:40.302Z,999.71
2022-09-26T09:30:51.517Z,999.71
2022-09-26T09:31:51.419Z,999.71
2022-09-26T10:13:45.342Z,998.92
2022-09-26T10:21:35.062Z,998.74
2022-09-26T10:27:18.033Z,998.61
2022-09-26T10:28:17.993Z,998.57
2022-09-26T10:31:25.312Z,998.52
2022-09-26T10:34:16.449Z,998.42
2022-09-26T10:36:48.351Z,998.42
2022-09-26T10:39:43.481Z,998.38
2022-09-26T10:43:47.188Z,998.34
2022-09-26T10:44:47.178Z,998.34
2022-09-26T10:45:54.247Z,998.31
2022-09-26T10:46:47.293Z,998.31
2022-09-26T10:47:47.119Z,998.26
2022-09-26T10:48:47.122Z,998.28
2022-09-26T10:49:47.109Z,998.25
2022-09-26T10:50:47.078Z,998.21
2022-09-26T10:51:47.087Z,998.22
2022-09-26T10:52:47.061Z,998.18
2022-09-26T10:54:08.046Z,998.17
2022-09-26T10:54:47.060Z,998.13
2022-09-26T10:55:47.017Z,998.13
2022-09-26T10:56:46.997Z,998.10
2022-09-26T10:57:46.990Z,998.10
2022-09-26T10:58:46.970Z,998.07
2022-09-26T10:59:46.981Z,998.01
2022-09-26T11:00:46.949Z,998.02
2022-09-26T11:01:46.957Z,998.03
2022-09-26T11:02:46.932Z,998.03
2022-09-26T11:03:46.974Z,998.01
2022-09-26T11:05:07.910Z,997.97
2022-09-26T11:05:46.870Z,997.90
2022-09-26T11:06:46.871Z,997.90
2022-09-26T11:07:46.855Z,997.95
2022-09-26T11:08:46.830Z,997.91
2022-09-26T11:09:46.835Z,997.86
2022-09-26T11:10:46.821Z,997.87
2022-09-26T11:11:46.792Z,997.82
2022-09-26T11:12:46.782Z,997.87
2022-09-26T11:13:46.770Z,997.84
2022-09-26T11:14:46.796Z,997.80
2022-09-26T11:16:07.806Z,997.78
2022-09-26T11:16:46.723Z,997.78
2022-09-26T11:17:46.713Z,997.71
2022-09-26T11:18:46.694Z,997.76
2022-09-26T11:19:49.939Z,997.77
2022-09-26T11:20:47.665Z,997.75
2022-09-26T11:21:46.662Z,997.75
2022-09-26T11:22:46.657Z,997.69
2022-09-26T11:23:46.633Z,997.74
2022-09-26T11:24:46.635Z,997.70
2022-09-26T11:25:46.604Z,997.70
2022-09-26T11:27:07.603Z,997.67
2022-09-26T11:27:46.574Z,997.63
2022-09-26T11:28:46.574Z,997.63
2022-09-26T11:29:46.565Z,997.63
2022-09-26T11:30:46.571Z,997.66
2022-09-26T11:31:46.515Z,997.56
2022-09-26T11:32:46.505Z,997.53
2022-09-26T11:33:46.506Z,997.53
2022-09-26T11:34:46.495Z,997.52
2022-09-26T11:35:46.466Z,997.44
2022-09-26T11:36:46.456Z,997.38
2022-09-26T11:38:07.465Z,997.40
2022-09-26T11:38:46.429Z,997.38
2022-09-26T11:39:46.426Z,997.35
2022-09-26T11:40:46.467Z,997.28
2022-09-26T11:41:46.396Z,997.27
2022-09-26T11:42:46.372Z,997.28
2022-09-26T11:43:46.367Z,997.24
2022-09-26T11:44:46.372Z,997.16
2022-09-26T11:45:47.581Z,997.17
2022-09-26T11:46:46.381Z,997.10
2022-09-26T11:47:46.320Z,997.11
2022-09-26T11:48:46.328Z,997.09
2022-09-26T11:49:46.322Z,997.10
2022-09-26T11:50:46.259Z,997.07
2022-09-26T11:51:46.248Z,997.00
2022-09-26T11:52:49.175Z,996.99
2022-09-26T11:54:07.242Z,997.03
2022-09-26T11:54:46.210Z,997.06
2022-09-26T11:55:46.191Z,997.03
2022-09-26T11:56:46.180Z,997.04
2022-09-26T11:57:46.170Z,997.01
2022-09-26T11:58:46.227Z,997.01
2022-09-26T11:59:46.142Z,997.02
2022-09-26T12:00:46.131Z,996.97
2022-09-26T12:01:46.126Z,996.97
2022-09-26T12:02:46.178Z,996.99
2022-09-26T12:03:46.202Z,996.95
2022-09-26T12:05:07.074Z,996.93
2022-09-26T12:05:46.062Z,996.93
2022-09-26T12:06:46.050Z,996.94
2022-09-26T12:07:46.034Z,996.90
2022-09-26T12:08:46.078Z,996.90
2022-09-26T12:09:46.022Z,996.90
2022-09-26T12:10:45.995Z,996.87
2022-09-26T12:11:45.981Z,996.91
2022-09-26T12:12:45.965Z,996.92
2022-09-26T12:13:45.953Z,996.88
2022-09-26T12:14:45.956Z,996.89
2022-09-26T12:16:06.954Z,996.86
2022-09-26T12:16:45.913Z,996.83
2022-09-26T12:17:45.930Z,996.89
2022-09-26T12:18:45.909Z,996.94
2022-09-26T13:03:45.602Z,996.71
2022-09-26T13:08:38.493Z,996.68
2022-09-26T13:17:55.488Z,996.50
2022-09-26T13:18:55.609Z,996.47
2022-09-26T13:19:55.457Z,996.53
2022-09-26T13:20:55.437Z,996.44
2022-09-26T13:21:55.418Z,996.46
2022-09-26T13:22:55.406Z,996.44
2022-09-26T13:23:55.421Z,996.38
2022-09-26T13:24:55.378Z,996.35
2022-09-26T13:25:55.384Z,996.37
2022-09-26T13:26:55.374Z,996.34
2022-09-26T13:28:16.358Z,996.34
2022-09-26T13:29:15.705Z,996.30
2022-09-26T13:29:56.309Z,996.32
2022-09-26T13:30:55.359Z,996.35
2022-09-26T13:31:55.416Z,996.29
2022-09-26T13:32:55.285Z,996.27
2022-09-26T13:33:55.284Z,996.23
2022-09-26T13:34:55.268Z,996.24
2022-09-26T13:35:55.250Z,996.26
2022-09-26T13:36:55.238Z,996.26
2022-09-26T13:38:00.139Z,996.20
2022-09-26T13:38:56.228Z,996.23
2022-09-26T13:39:55.180Z,996.23
2022-09-26T13:40:55.258Z,996.26
2022-09-26T13:42:04.953Z,996.23
2022-09-26T13:42:58.301Z,996.28
2022-09-26T13:44:17.144Z,996.19
2022-09-26T13:44:55.124Z,996.27
2022-09-26T13:45:55.144Z,996.24
2022-09-26T13:46:55.084Z,996.31
2022-09-26T13:49:28.577Z,996.24
2022-09-26T13:51:51.597Z,996.22
2022-09-26T13:52:51.632Z,996.19
2022-09-26T13:53:51.560Z,996.19
2022-09-26T13:55:05.492Z,996.25
2022-09-26T13:55:51.530Z,996.25
2022-09-26T13:58:10.152Z,996.17
2022-09-26T14:06:44.241Z,996.17
2022-09-26T14:14:34.132Z,996.06
2022-09-26T14:15:46.245Z,996.03
2022-09-26T14:16:44.968Z,996.00
2022-09-26T14:24:46.925Z,996.00
2022-09-26T14:27:43.567Z,995.91
2022-09-26T14:28:43.653Z,995.91
2022-09-26T14:32:14.921Z,995.81
2022-09-26T14:33:14.888Z,995.78
2022-09-26T14:34:22.548Z,995.76
2022-09-26T14:35:22.446Z,995.76
2022-09-26T14:36:14.856Z,995.77
2022-09-26T14:37:14.836Z,995.76
2022-09-26T14:38:14.837Z,995.72
2022-09-26T14:39:18.227Z,995.74
2022-09-26T14:40:14.888Z,995.70
2022-09-26T14:41:14.800Z,995.70
2022-09-26T14:42:35.767Z,995.64
2022-09-26T14:43:14.765Z,995.60
2022-09-26T14:44:14.842Z,995.55
2022-09-26T14:45:14.736Z,995.54